Time;durP1;ratioP1;P1;durP2;ratioP2;P2;SDS_P1;SDS_P2;PMS_P1;PMS_P2;Temp;Humidity;BMP_temperature;BMP_pressure;BME280_temperature;BME280_humidity;BME280_pressure;Samples;Min_cycle;Max_cycle;Signal;HPM_P1;HPM_P2
2022/08/21 00:03:03;;;;;;;0.00;0.00;;;;;;;;;;12275730;19;20228;-65
2022/08/21 00:07:03;;;;;;;0.00;0.00;;;;;;;;;;12270811;19;20191;-66
2022/08/21 00:11:04;;;;;;;0.00;0.00;;;;;;;;;;12274309;19;20228;-65
2022/08/21 00:15:05;;;;;;;0.00;0.00;;;;;;;;;;12277374;19;20255;-67
2022/08/21 00:19:06;;;;;;;0.00;0.00;;;;;;;;;;12276833;19;20015;-66
2022/08/21 00:23:06;;;;;;;0.00;0.00;;;;;;;;;;12277960;19;19999;-66
2022/08/21 00:27:07;;;;;;;0.00;0.00;;;;;;;;;;12276745;19;20003;-67
2022/08/21 00:31:08;;;;;;;0.00;0.00;;;;;;;;;;12278501;19;20123;-65
2022/08/21 00:35:11;;;;;;;0.00;0.00;;;;;;;;;;12273707;19;19982;-66
2022/08/21 00:39:11;;;;;;;0.00;0.00;;;;;;;;;;12275901;19;20343;-65
2022/08/21 00:43:13;;;;;;;0.00;0.00;;;;;;;;;;12275196;19;20054;-65
2022/08/21 00:47:13;;;;;;;0.00;0.00;;;;;;;;;;12269533;19;20062;-67
2022/08/21 00:51:18;;;;;;;0.00;0.00;;;;;;;;;;12273913;19;20054;-65
2022/08/21 00:55:19;;;;;;;0.00;0.00;;;;;;;;;;12271518;19;20390;-66
2022/08/21 00:59:20;;;;;;;0.00;0.00;;;;;;;;;;12273428;19;20014;-65
2022/08/21 01:03:22;;;;;;;0.00;0.00;;;;;;;;;;12286231;19;20003;-63
2022/08/21 01:07:22;;;;;;;0.00;0.00;;;;;;;;;;12284283;19;20006;-63
2022/08/21 01:11:22;;;;;;;0.00;0.00;;;;;;;;;;12286376;19;20010;-64
2022/08/21 01:15:24;;;;;;;0.00;0.00;;;;;;;;;;12282286;19;19986;-64
2022/08/21 01:19:25;;;;;;;0.00;0.00;;;;;;;;;;12287960;19;19999;-64
2022/08/21 01:23:25;;;;;;;0.00;0.00;;;;;;;;;;12285039;19;20006;-64
2022/08/21 01:27:25;;;;;;;0.00;0.00;;;;;;;;;;12283089;19;19995;-65
2022/08/21 01:31:27;;;;;;;0.00;0.00;;;;;;;;;;12277930;19;20047;-65
2022/08/21 01:35:27;;;;;;;0.00;0.00;;;;;;;;;;12277743;19;19987;-65
2022/08/21 01:39:28;;;;;;;0.00;0.00;;;;;;;;;;12284841;19;20054;-64
2022/08/21 01:43:28;;;;;;;0.00;0.00;;;;;;;;;;12279210;19;20231;-65
2022/08/21 01:47:29;;;;;;;0.00;0.00;;;;;;;;;;12277285;19;20018;-64
2022/08/21 01:51:29;;;;;;;0.00;0.00;;;;;;;;;;12276884;19;20212;-65
2022/08/21 01:55:30;;;;;;;0.00;0.00;;;;;;;;;;12284822;19;20010;-64
2022/08/21 01:59:30;;;;;;;0.00;0.00;;;;;;;;;;12278558;19;19987;-65
2022/08/21 02:03:31;;;;;;;0.00;0.00;;;;;;;;;;12283160;19;20012;-64
2022/08/21 02:07:39;;;;;;;0.00;0.00;;;;;;;;;;12278300;19;19998;-65
2022/08/21 02:11:40;;;;;;;0.00;0.00;;;;;;;;;;12281807;19;20003;-65
2022/08/21 02:15:40;;;;;;;0.00;0.00;;;;;;;;;;12281549;19;20022;-65
2022/08/21 02:19:40;;;;;;;0.00;0.00;;;;;;;;;;12285947;19;20046;-65
2022/08/21 02:23:41;;;;;;;0.00;0.00;;;;;;;;;;12280953;19;20203;-65
2022/08/21 02:27:43;;;;;;;0.00;0.00;;;;;;;;;;12278431;19;19991;-64
2022/08/21 02:31:43;;;;;;;0.00;0.00;;;;;;;;;;12279205;19;20259;-65
2022/08/21 02:35:45;;;;;;;0.00;0.00;;;;;;;;;;12283322;19;20010;-65
2022/08/21 02:39:45;;;;;;;0.00;0.00;;;;;;;;;;12277039;19;20020;-65
2022/08/21 02:43:46;;;;;;;0.00;0.00;;;;;;;;;;12283610;19;20015;-64
2022/08/21 02:47:47;;;;;;;0.00;0.00;;;;;;;;;;12276294;19;20002;-65
2022/08/21 02:51:47;;;;;;;0.00;0.00;;;;;;;;;;12283537;19;20006;-65
2022/08/21 02:55:49;;;;;;;0.00;0.00;;;;;;;;;;12279583;19;20209;-64
2022/08/21 02:59:49;;;;;;;0.00;0.00;;;;;;;;;;12283770;19;19998;-64
2022/08/21 03:03:49;;;;;;;0.00;0.00;;;;;;;;;;12290524;19;19983;-65
2022/08/21 03:07:51;;;;;;;0.00;0.00;;;;;;;;;;12294914;19;20010;-64
2022/08/21 03:11:51;;;;;;;0.00;0.00;;;;;;;;;;12291762;19;19987;-64
2022/08/21 03:15:52;;;;;;;0.00;0.00;;;;;;;;;;12296478;19;20002;-64
2022/08/21 03:19:52;;;;;;;0.00;0.00;;;;;;;;;;12291275;19;19979;-66
2022/08/21 03:23:53;;;;;;;0.00;0.00;;;;;;;;;;12294048;19;20007;-64
2022/08/21 03:27:54;;;;;;;0.00;0.00;;;;;;;;;;12291528;19;20046;-65
2022/08/21 03:31:54;;;;;;;0.00;0.00;;;;;;;;;;12293644;19;20031;-65
2022/08/21 03:35:57;;;;;;;0.00;0.00;;;;;;;;;;12292609;19;20011;-65
2022/08/21 03:39:58;;;;;;;0.00;0.00;;;;;;;;;;12292814;19;20291;-65
2022/08/21 03:43:59;;;;;;;0.00;0.00;;;;;;;;;;12297923;19;20003;-66
2022/08/21 03:48:01;;;;;;;0.00;0.00;;;;;;;;;;12297186;19;20013;-66
2022/08/21 03:52:02;;;;;;;0.00;0.00;;;;;;;;;;12288134;19;19990;-65
2022/08/21 03:56:03;;;;;;;0.00;0.00;;;;;;;;;;12291699;19;20011;-65
2022/08/21 04:00:04;;;;;;;0.00;0.00;;;;;;;;;;12292658;19;20014;-66
2022/08/21 04:04:05;;;;;;;0.00;0.00;;;;;;;;;;12289352;19;20006;-64
2022/08/21 04:08:06;;;;;;;0.00;0.00;;;;;;;;;;12288038;19;20007;-64
2022/08/21 04:12:07;;;;;;;0.00;0.00;;;;;;;;;;12287505;19;20014;-64
2022/08/21 04:16:07;;;;;;;0.00;0.00;;;;;;;;;;12290471;19;20032;-65
2022/08/21 04:20:08;;;;;;;0.00;0.00;;;;;;;;;;12290315;19;20009;-64
2022/08/21 04:24:09;;;;;;;0.00;0.00;;;;;;;;;;12286836;19;20054;-64
2022/08/21 04:28:09;;;;;;;0.00;0.00;;;;;;;;;;12282393;19;20016;-65
2022/08/21 04:32:10;;;;;;;0.00;0.00;;;;;;;;;;12283606;19;19991;-65
2022/08/21 04:36:10;;;;;;;0.00;0.00;;;;;;;;;;12289442;19;20038;-66
2022/08/21 04:40:12;;;;;;;0.00;0.00;;;;;;;;;;12285269;19;20002;-67
2022/08/21 04:44:13;;;;;;;0.00;0.00;;;;;;;;;;12285033;19;20110;-65
2022/08/21 04:48:14;;;;;;;0.00;0.00;;;;;;;;;;12285000;19;20104;-66
2022/08/21 04:52:22;;;;;;;0.00;0.00;;;;;;;;;;12286288;19;19998;-65
2022/08/21 04:56:29;;;;;;;0.00;0.00;;;;;;;;;;12291134;19;20003;-65
2022/08/21 05:00:29;;;;;;;0.00;0.00;;;;;;;;;;12278172;19;20046;-68
2022/08/21 05:04:30;;;;;;;0.00;0.00;;;;;;;;;;12274283;19;20031;-67
2022/08/21 05:08:31;;;;;;;0.00;0.00;;;;;;;;;;12276029;19;20446;-65
2022/08/21 05:12:31;;;;;;;0.00;0.00;;;;;;;;;;12272705;19;20130;-66
2022/08/21 05:16:32;;;;;;;0.00;0.00;;;;;;;;;;12277658;19;19999;-66
2022/08/21 05:20:34;;;;;;;0.00;0.00;;;;;;;;;;12280754;19;19998;-63
2022/08/21 05:24:34;;;;;;;;;;;;;;;;;;12276292;19;20018;-66
2022/08/21 05:28:35;;;;;;;0.00;0.00;;;;;;;;;;12276826;19;19910;-64
2022/08/21 05:32:35;;;;;;;0.00;0.00;;;;;;;;;;12279970;19;19991;-67
2022/08/21 05:36:35;;;;;;;0.00;0.00;;;;;;;;;;12278067;19;19998;-68
2022/08/21 05:40:36;;;;;;;0.00;0.00;;;;;;;;;;12277615;19;20107;-67
2022/08/21 05:44:36;;;;;;;0.00;0.00;;;;;;;;;;12274879;19;20482;-66
2022/08/21 05:48:37;;;;;;;0.00;0.00;;;;;;;;;;12273771;19;20019;-65
2022/08/21 05:52:37;;;;;;;0.00;0.00;;;;;;;;;;12273034;19;20280;-65
2022/08/21 05:56:37;;;;;;;0.00;0.00;;;;;;;;;;12249997;19;20331;-66
2022/08/21 06:00:38;;;;;;;0.00;0.00;;;;;;;;;;12277420;19;19991;-66
2022/08/21 06:04:39;;;;;;;0.00;0.00;;;;;;;;;;12273955;19;20135;-63
2022/08/21 06:08:40;;;;;;;0.00;0.00;;;;;;;;;;12276052;19;20018;-63
2022/08/21 06:12:40;;;;;;;0.00;0.00;;;;;;;;;;12276407;19;20007;-68
2022/08/21 06:16:40;;;;;;;0.00;0.00;;;;;;;;;;12269725;19;20016;-68
2022/08/21 06:20:41;;;;;;;0.00;0.00;;;;;;;;;;12278219;19;20135;-67
2022/08/21 06:24:41;;;;;;;0.00;0.00;;;;;;;;;;12273388;19;20252;-67
2022/08/21 06:28:42;;;;;;;0.00;0.00;;;;;;;;;;12275572;19;20009;-67
2022/08/21 06:32:43;;;;;;;0.00;0.00;;;;;;;;;;12273889;19;20262;-67
2022/08/21 06:36:43;;;;;;;0.00;0.00;;;;;;;;;;12273901;19;20055;-65
2022/08/21 06:40:44;;;;;;;0.00;0.00;;;;;;;;;;12275116;19;20007;-65
2022/08/21 06:44:44;;;;;;;0.00;0.00;;;;;;;;;;12273016;19;20009;-66
2022/08/21 06:48:44;;;;;;;0.00;0.00;;;;;;;;;;12273523;19;20018;-68
2022/08/21 06:52:44;;;;;;;0.00;0.00;;;;;;;;;;12275573;19;20383;-65
2022/08/21 06:56:45;;;;;;;0.00;0.00;;;;;;;;;;12273952;19;20009;-63
2022/08/21 07:00:48;;;;;;;0.00;0.00;;;;;;;;;;12274871;19;20007;-68
2022/08/21 07:04:48;;;;;;;0.00;0.00;;;;;;;;;;12271630;19;20003;-68
2022/08/21 07:08:49;;;;;;;0.00;0.00;;;;;;;;;;12271398;19;20007;-72
2022/08/21 07:12:50;;;;;;;0.00;0.00;;;;;;;;;;12274971;19;20388;-66
2022/08/21 07:16:51;;;;;;;0.00;0.00;;;;;;;;;;12270819;19;20068;-65
2022/08/21 07:20:51;;;;;;;0.00;0.00;;;;;;;;;;12267478;19;20203;-66
2022/08/21 07:24:51;;;;;;;0.00;0.00;;;;;;;;;;12271495;19;20009;-68
2022/08/21 07:28:52;;;;;;;0.00;0.00;;;;;;;;;;12272716;19;20263;-73
2022/08/21 07:32:53;;;;;;;0.00;0.00;;;;;;;;;;12272530;19;20222;-73
2022/08/21 07:36:53;;;;;;;0.00;0.00;;;;;;;;;;12267734;19;20007;-63
2022/08/21 07:40:55;;;;;;;0.00;0.00;;;;;;;;;;12272238;19;20239;-62
2022/08/21 07:44:55;;;;;;;0.00;0.00;;;;;;;;;;12270130;19;20030;-75
2022/08/21 07:48:56;;;;;;;0.00;0.00;;;;;;;;;;12275955;19;20015;-66
2022/08/21 07:52:56;;;;;;;0.00;0.00;;;;;;;;;;12276863;19;20003;-67
2022/08/21 07:56:56;;;;;;;0.00;0.00;;;;;;;;;;12273288;19;20006;-63
2022/08/21 08:00:57;;;;;;;0.00;0.00;;;;;;;;;;12279812;19;20067;-66
2022/08/21 08:05:05;;;;;;;0.00;0.00;;;;;;;;;;12277949;19;20254;-74
2022/08/21 08:09:05;;;;;;;0.00;0.00;;;;;;;;;;12278020;19;20006;-63
2022/08/21 08:13:05;;;;;;;0.00;0.00;;;;;;;;;;12276914;19;20006;-67
2022/08/21 08:17:06;;;;;;;0.00;0.00;;;;;;;;;;12275164;19;20035;-71
2022/08/21 08:21:06;;;;;;;0.00;0.00;;;;;;;;;;12280809;19;20019;-68
2022/08/21 08:25:08;;;;;;;0.00;0.00;;;;;;;;;;12278707;19;20268;-65
2022/08/21 08:29:08;;;;;;;0.00;0.00;;;;;;;;;;12278362;19;20268;-72
2022/08/21 08:33:09;;;;;;;0.00;0.00;;;;;;;;;;12275378;19;20007;-72
2022/08/21 08:37:10;;;;;;;0.00;0.00;;;;;;;;;;12273254;19;20007;-74
2022/08/21 08:41:12;;;;;;;0.00;0.00;;;;;;;;;;12278654;19;20002;-74
2022/08/21 08:45:15;;;;;;;0.00;0.00;;;;;;;;;;12279113;19;20011;-68
2022/08/21 08:49:31;;;;;;;0.00;0.00;;;;;;;;;;12273903;19;20014;-72
2022/08/21 08:53:51;;;;;;;0.00;0.00;;;;;;;;;;12276116;19;20070;-72
2022/08/21 08:57:52;;;;;;;0.00;0.00;;;;;;;;;;12278453;19;20019;-67
2022/08/21 09:01:53;;;;;;;0.00;0.00;;;;;;;;;;12278168;19;20010;-66
2022/08/21 09:06:12;;;;;;;0.00;0.00;;;;;;;;;;12272543;19;20006;-73
2022/08/21 09:10:12;;;;;;;0.00;0.00;;;;;;;;;;12277664;19;20009;-65
2022/08/21 09:14:40;;;;;;;0.00;0.00;;;;;;;;;;12278449;19;20014;-70
2022/08/21 09:18:41;;;;;;;0.00;0.00;;;;;;;;;;12268046;19;19999;-66
2022/08/21 09:22:41;;;;;;;0.00;0.00;;;;;;;;;;12270511;19;20092;-76
2022/08/21 09:26:53;;;;;;;0.00;0.00;;;;;;;;;;12271149;19;20016;-68
2022/08/21 09:30:55;;;;;;;0.00;0.00;;;;;;;;;;12269783;19;20003;-75
2022/08/21 09:35:05;;;;;;;0.00;0.00;;;;;;;;;;12269275;19;19997;-64
2022/08/21 09:39:07;;;;;;;0.00;0.00;;;;;;;;;;12269354;19;20014;-66
2022/08/21 09:43:24;;;;;;;0.00;0.00;;;;;;;;;;12272153;19;20234;-72
2022/08/21 09:47:26;;;;;;;0.00;0.00;;;;;;;;;;12269192;19;20115;-69
2022/08/21 09:51:31;;;;;;;0.00;0.00;;;;;;;;;;12272818;19;20005;-68
2022/08/21 09:59:50;;;;;;;0.00;0.00;;;;;;;;;;12278915;19;19998;-69
2022/08/21 10:04:09;;;;;;;0.00;0.00;;;;;;;;;;12279765;19;20011;-65
2022/08/21 10:08:17;;;;;;;0.00;0.00;;;;;;;;;;12278608;19;20019;-67
2022/08/21 10:12:23;;;;;;;0.00;0.00;;;;;;;;;;12283331;19;20011;-67
2022/08/21 10:16:41;;;;;;;0.00;0.00;;;;;;;;;;12282280;19;20054;-67
2022/08/21 10:20:48;;;;;;;0.00;0.00;;;;;;;;;;12288328;19;19999;-65
2022/08/21 10:25:01;;;;;;;0.00;0.00;;;;;;;;;;12283267;19;20119;-67
2022/08/21 10:29:01;;;;;;;0.00;0.00;;;;;;;;;;12281470;19;20012;-68
2022/08/21 10:33:11;;;;;;;0.00;0.00;;;;;;;;;;12279121;19;20031;-67
2022/08/21 10:37:26;;;;;;;0.00;0.00;;;;;;;;;;12278286;19;20013;-66
2022/08/21 10:41:46;;;;;;;0.00;0.00;;;;;;;;;;12278453;19;19995;-66
2022/08/21 10:46:05;;;;;;;0.00;0.00;;;;;;;;;;12277080;19;20007;-66
2022/08/21 10:50:24;;;;;;;0.00;0.00;;;;;;;;;;12281972;19;20013;-68
2022/08/21 10:54:43;;;;;;;0.00;0.00;;;;;;;;;;12279995;19;20003;-67
2022/08/21 10:59:03;;;;;;;0.00;0.00;;;;;;;;;;12279789;19;19998;-65
2022/08/21 11:03:07;;;;;;;0.00;0.00;;;;;;;;;;12279844;19;20006;-67
2022/08/21 11:07:15;;;;;;;0.00;0.00;;;;;;;;;;12270970;19;20026;-65
2022/08/21 11:11:22;;;;;;;0.00;0.00;;;;;;;;;;12282178;19;20006;-64
2022/08/21 11:15:25;;;;;;;0.00;0.00;;;;;;;;;;12276173;19;20003;-66
2022/08/21 11:19:33;;;;;;;0.00;0.00;;;;;;;;;;12275881;19;20018;-67
2022/08/21 11:23:38;;;;;;;0.00;0.00;;;;;;;;;;12278488;19;20131;-66
2022/08/21 11:27:38;;;;;;;0.00;0.00;;;;;;;;;;12282821;19;19991;-65
2022/08/21 11:31:57;;;;;;;0.00;0.00;;;;;;;;;;12287898;19;19994;-67
2022/08/21 11:36:03;;;;;;;0.00;0.00;;;;;;;;;;12288734;19;20003;-66
2022/08/21 11:40:21;;;;;;;0.00;0.00;;;;;;;;;;12286079;19;20003;-66
2022/08/21 11:44:37;;;;;;;0.00;0.00;;;;;;;;;;12288493;19;19999;-66
2022/08/21 11:48:37;;;;;;;0.00;0.00;;;;;;;;;;12284219;19;20230;-66
2022/08/21 11:52:44;;;;;;;0.00;0.00;;;;;;;;;;12285864;19;20238;-68
2022/08/21 11:56:47;;;;;;;0.00;0.00;;;;;;;;;;12286054;19;20029;-67
2022/08/21 12:00:52;;;;;;;0.00;0.00;;;;;;;;;;12291600;19;20036;-67
2022/08/21 12:04:58;;;;;;;0.00;0.00;;;;;;;;;;12285954;19;20002;-66
2022/08/21 12:09:00;;;;;;;0.00;0.00;;;;;;;;;;12289091;19;20145;-67
2022/08/21 12:13:27;;;;;;;0.00;0.00;;;;;;;;;;12288043;19;20278;-67
2022/08/21 12:17:34;;;;;;;0.00;0.00;;;;;;;;;;12283311;19;20080;-67
2022/08/21 12:21:55;;;;;;;0.00;0.00;;;;;;;;;;12281979;19;20007;-71
2022/08/21 12:26:14;;;;;;;0.00;0.00;;;;;;;;;;12281620;19;20230;-62
2022/08/21 12:30:33;;;;;;;0.00;0.00;;;;;;;;;;12280455;19;20131;-68
2022/08/21 12:34:38;;;;;;;0.00;0.00;;;;;;;;;;12278909;19;20030;-68
2022/08/21 12:38:42;;;;;;;0.00;0.00;;;;;;;;;;12279970;19;20010;-64
2022/08/21 12:42:46;;;;;;;0.00;0.00;;;;;;;;;;12281934;19;20258;-66
2022/08/21 12:47:01;;;;;;;0.00;0.00;;;;;;;;;;12275428;19;20014;-67
2022/08/21 12:51:05;;;;;;;0.00;0.00;;;;;;;;;;12279947;19;20055;-68
2022/08/21 12:55:06;;;;;;;0.00;0.00;;;;;;;;;;12273932;19;20185;-67
2022/08/21 12:59:10;;;;;;;0.00;0.00;;;;;;;;;;12277761;19;20018;-67
2022/08/21 13:03:14;;;;;;;0.00;0.00;;;;;;;;;;12280312;19;20236;-67
2022/08/21 13:07:16;;;;;;;0.00;0.00;;;;;;;;;;12278025;19;19991;-65
2022/08/21 13:11:18;;;;;;;0.00;0.00;;;;;;;;;;12276659;19;20083;-68
2022/08/21 13:15:24;;;;;;;0.00;0.00;;;;;;;;;;12277230;19;20247;-65
2022/08/21 13:19:25;;;;;;;0.00;0.00;;;;;;;;;;12281578;19;20008;-66
2022/08/21 13:23:27;;;;;;;0.00;0.00;;;;;;;;;;12278705;19;19998;-67
2022/08/21 13:27:29;;;;;;;0.00;0.00;;;;;;;;;;12281511;19;20010;-67
2022/08/21 13:31:31;;;;;;;0.00;0.00;;;;;;;;;;12277188;19;19999;-66
2022/08/21 13:35:36;;;;;;;0.00;0.00;;;;;;;;;;12269734;19;20002;-65
2022/08/21 13:39:38;;;;;;;0.00;0.00;;;;;;;;;;12277904;19;20018;-68
2022/08/21 13:43:44;;;;;;;0.00;0.00;;;;;;;;;;12279107;19;20058;-66
2022/08/21 13:47:46;;;;;;;0.00;0.00;;;;;;;;;;12273614;19;20251;-69
2022/08/21 13:51:46;;;;;;;0.00;0.00;;;;;;;;;;12282210;19;20014;-66
2022/08/21 13:55:46;;;;;;;0.00;0.00;;;;;;;;;;12282381;19;20003;-67
2022/08/21 13:59:47;;;;;;;0.00;0.00;;;;;;;;;;12278154;19;20228;-69
2022/08/21 14:03:48;;;;;;;0.00;0.00;;;;;;;;;;12278872;19;19998;-66
2022/08/21 14:07:49;;;;;;;0.00;0.00;;;;;;;;;;12278370;19;19991;-66
2022/08/21 14:11:50;;;;;;;0.00;0.00;;;;;;;;;;12280078;19;20019;-68
2022/08/21 14:15:58;;;;;;;0.00;0.00;;;;;;;;;;12275443;19;20003;-65
2022/08/21 14:19:58;;;;;;;0.00;0.00;;;;;;;;;;12273635;19;20027;-65
2022/08/21 14:24:03;;;;;;;0.00;0.00;;;;;;;;;;12280225;19;20010;-66
2022/08/21 14:28:11;;;;;;;0.00;0.00;;;;;;;;;;12279050;19;20206;-68
2022/08/21 14:32:11;;;;;;;0.00;0.00;;;;;;;;;;12276798;19;19979;-67
2022/08/21 14:36:12;;;;;;;0.00;0.00;;;;;;;;;;12279467;19;20029;-68
2022/08/21 14:40:12;;;;;;;0.00;0.00;;;;;;;;;;12280371;19;19998;-67
2022/08/21 14:44:13;;;;;;;0.00;0.00;;;;;;;;;;12277032;19;20042;-67
2022/08/21 14:48:13;;;;;;;0.00;0.00;;;;;;;;;;12277001;19;20140;-67
2022/08/21 14:52:13;;;;;;;0.00;0.00;;;;;;;;;;12274471;19;20241;-68
2022/08/21 14:56:15;;;;;;;0.00;0.00;;;;;;;;;;12272939;19;20006;-66
2022/08/21 15:00:17;;;;;;;0.00;0.00;;;;;;;;;;12277149;19;20018;-68
2022/08/21 15:04:18;;;;;;;0.00;0.00;;;;;;;;;;12274003;19;19994;-68
2022/08/21 15:08:19;;;;;;;0.00;0.00;;;;;;;;;;12276906;19;20001;-66
2022/08/21 15:12:19;;;;;;;0.00;0.00;;;;;;;;;;12277330;19;20006;-68
2022/08/21 15:16:19;;;;;;;0.00;0.00;;;;;;;;;;12273582;19;20338;-68
2022/08/21 15:20:20;;;;;;;0.00;0.00;;;;;;;;;;12274280;19;20010;-66
2022/08/21 15:24:20;;;;;;;0.00;0.00;;;;;;;;;;12277417;19;19998;-66
2022/08/21 15:28:21;;;;;;;0.00;0.00;;;;;;;;;;12272604;19;20007;-67
2022/08/21 15:32:23;;;;;;;0.00;0.00;;;;;;;;;;12272600;19;20279;-67
2022/08/21 15:36:24;;;;;;;0.00;0.00;;;;;;;;;;12268404;19;20243;-68
2022/08/21 15:40:24;;;;;;;0.00;0.00;;;;;;;;;;12274897;19;19999;-67
2022/08/21 15:44:26;;;;;;;0.00;0.00;;;;;;;;;;12274907;19;20120;-66
2022/08/21 15:48:27;;;;;;;0.00;0.00;;;;;;;;;;12273353;19;20011;-67
2022/08/21 15:52:27;;;;;;;0.00;0.00;;;;;;;;;;12270847;19;20138;-66
2022/08/21 15:56:32;;;;;;;0.00;0.00;;;;;;;;;;12275377;19;20035;-65
2022/08/21 16:00:34;;;;;;;0.00;0.00;;;;;;;;;;12277551;19;20275;-65
2022/08/21 16:04:35;;;;;;;0.00;0.00;;;;;;;;;;12273761;19;20180;-67
2022/08/21 16:08:35;;;;;;;0.00;0.00;;;;;;;;;;12278319;19;20270;-68
2022/08/21 16:12:41;;;;;;;0.00;0.00;;;;;;;;;;12282536;19;20011;-65
2022/08/21 16:16:42;;;;;;;0.00;0.00;;;;;;;;;;12281768;19;20027;-65
2022/08/21 16:20:42;;;;;;;0.00;0.00;;;;;;;;;;12286520;19;19995;-67
2022/08/21 16:24:42;;;;;;;0.00;0.00;;;;;;;;;;12283547;19;20007;-66
2022/08/21 16:28:45;;;;;;;0.00;0.00;;;;;;;;;;12275489;19;19995;-64
2022/08/21 16:32:46;;;;;;;0.00;0.00;;;;;;;;;;12280206;19;20034;-66
2022/08/21 16:36:46;;;;;;;0.00;0.00;;;;;;;;;;12283582;19;19999;-64
2022/08/21 16:40:47;;;;;;;0.00;0.00;;;;;;;;;;12280694;19;20003;-67
2022/08/21 16:44:47;;;;;;;0.00;0.00;;;;;;;;;;12281408;19;20002;-66
2022/08/21 16:48:48;;;;;;;0.00;0.00;;;;;;;;;;12275375;19;20021;-67
2022/08/21 16:52:49;;;;;;;0.00;0.00;;;;;;;;;;12280471;19;20272;-65
2022/08/21 16:56:49;;;;;;;0.00;0.00;;;;;;;;;;12281313;19;20002;-65
2022/08/21 17:00:50;;;;;;;0.00;0.00;;;;;;;;;;12280087;19;19995;-66
2022/08/21 17:04:50;;;;;;;0.00;0.00;;;;;;;;;;12278123;19;20131;-68
2022/08/21 17:08:51;;;;;;;0.00;0.00;;;;;;;;;;12283446;19;20002;-67
2022/08/21 17:12:54;;;;;;;0.00;0.00;;;;;;;;;;12282736;19;20268;-67
2022/08/21 17:16:55;;;;;;;0.00;0.00;;;;;;;;;;12279609;19;20002;-64
2022/08/21 17:20:56;;;;;;;0.00;0.00;;;;;;;;;;12277146;19;20173;-67
2022/08/21 17:24:56;;;;;;;0.00;0.00;;;;;;;;;;12279005;19;20175;-67
2022/08/21 17:28:56;;;;;;;0.00;0.00;;;;;;;;;;12279659;19;20042;-67
2022/08/21 17:32:58;;;;;;;0.00;0.00;;;;;;;;;;12281886;19;19999;-67
2022/08/21 17:36:59;;;;;;;0.00;0.00;;;;;;;;;;12281201;19;20034;-66
2022/08/21 17:41:00;;;;;;;0.00;0.00;;;;;;;;;;12279415;19;20006;-67
2022/08/21 17:45:00;;;;;;;0.00;0.00;;;;;;;;;;12279842;19;20046;-67
2022/08/21 17:49:00;;;;;;;0.00;0.00;;;;;;;;;;12275863;19;20006;-66
2022/08/21 17:53:01;;;;;;;0.00;0.00;;;;;;;;;;12278785;19;20006;-67
2022/08/21 17:57:01;;;;;;;0.00;0.00;;;;;;;;;;12279883;19;20268;-67
2022/08/21 18:01:04;;;;;;;0.00;0.00;;;;;;;;;;12279150;19;20002;-67
2022/08/21 18:05:05;;;;;;;0.00;0.00;;;;;;;;;;12280587;19;20006;-66
2022/08/21 18:09:07;;;;;;;0.00;0.00;;;;;;;;;;12278067;19;20010;-65
2022/08/21 18:13:08;;;;;;;0.00;0.00;;;;;;;;;;12273289;19;20044;-66
2022/08/21 18:17:10;;;;;;;0.00;0.00;;;;;;;;;;12275756;19;20028;-67
2022/08/21 18:21:11;;;;;;;0.00;0.00;;;;;;;;;;12277682;19;19999;-66
2022/08/21 18:25:11;;;;;;;0.00;0.00;;;;;;;;;;12272715;19;20014;-66
2022/08/21 18:29:13;;;;;;;0.00;0.00;;;;;;;;;;12270814;19;20222;-65
2022/08/21 18:33:14;;;;;;;0.00;0.00;;;;;;;;;;12277052;19;19994;-64
2022/08/21 18:37:14;;;;;;;0.00;0.00;;;;;;;;;;12274047;19;20006;-66
2022/08/21 18:41:15;;;;;;;0.00;0.00;;;;;;;;;;12274733;19;20113;-66
2022/08/21 18:45:17;;;;;;;0.00;0.00;;;;;;;;;;12274733;19;20007;-68
2022/08/21 18:49:17;;;;;;;0.00;0.00;;;;;;;;;;12271319;19;20024;-66
2022/08/21 18:53:17;;;;;;;0.00;0.00;;;;;;;;;;12272066;19;20020;-66
2022/08/21 18:57:18;;;;;;;0.00;0.00;;;;;;;;;;12272151;19;20006;-63
2022/08/21 19:01:18;;;;;;;0.00;0.00;;;;;;;;;;12272156;19;20251;-66
2022/08/21 19:05:20;;;;;;;0.00;0.00;;;;;;;;;;12273049;19;20014;-69
2022/08/21 19:09:20;;;;;;;;;;;;;;;;;;12271824;19;20263;-66
2022/08/21 19:13:21;;;;;;;0.00;0.00;;;;;;;;;;12275085;19;20115;-65
2022/08/21 19:17:22;;;;;;;0.00;0.00;;;;;;;;;;12272001;19;20130;-67
2022/08/21 19:21:22;;;;;;;0.00;0.00;;;;;;;;;;12276001;19;20145;-63
2022/08/21 19:25:24;;;;;;;0.00;0.00;;;;;;;;;;12275472;19;19995;-68
2022/08/21 19:29:24;;;;;;;0.00;0.00;;;;;;;;;;12276789;19;20006;-67
2022/08/21 19:33:28;;;;;;;0.00;0.00;;;;;;;;;;12273344;19;20100;-68
2022/08/21 19:37:28;;;;;;;0.00;0.00;;;;;;;;;;12270100;19;20003;-66
2022/08/21 19:41:30;;;;;;;0.00;0.00;;;;;;;;;;12273075;19;20014;-62
2022/08/21 19:45:33;;;;;;;0.00;0.00;;;;;;;;;;12278502;19;19999;-68
2022/08/21 19:49:34;;;;;;;0.00;0.00;;;;;;;;;;12274773;19;20028;-66
2022/08/21 19:53:34;;;;;;;0.00;0.00;;;;;;;;;;12283693;19;20157;-69
2022/08/21 19:57:36;;;;;;;0.00;0.00;;;;;;;;;;12285910;19;20197;-66
2022/08/21 20:01:36;;;;;;;0.00;0.00;;;;;;;;;;12281069;19;20003;-68
2022/08/21 20:05:36;;;;;;;0.00;0.00;;;;;;;;;;12275912;19;19998;-67
2022/08/21 20:09:37;;;;;;;0.00;0.00;;;;;;;;;;12278029;19;20482;-67
2022/08/21 20:13:38;;;;;;;0.00;0.00;;;;;;;;;;12285149;19;20292;-67
2022/08/21 20:17:38;;;;;;;0.00;0.00;;;;;;;;;;12281747;19;20011;-68
2022/08/21 20:21:39;;;;;;;0.00;0.00;;;;;;;;;;12283143;19;20066;-64
2022/08/21 20:25:39;;;;;;;0.00;0.00;;;;;;;;;;12287509;19;20002;-68
2022/08/21 20:29:39;;;;;;;0.00;0.00;;;;;;;;;;12278928;19;19995;-64
2022/08/21 20:33:40;;;;;;;0.00;0.00;;;;;;;;;;12278491;19;20203;-67
2022/08/21 20:37:41;;;;;;;0.00;0.00;;;;;;;;;;12286708;19;20219;-67
2022/08/21 20:41:43;;;;;;;0.00;0.00;;;;;;;;;;12279543;19;19998;-67
2022/08/21 20:45:43;;;;;;;0.00;0.00;;;;;;;;;;12282816;19;20002;-67
2022/08/21 20:49:46;;;;;;;0.00;0.00;;;;;;;;;;12277005;19;20013;-64
2022/08/21 20:53:50;;;;;;;0.00;0.00;;;;;;;;;;12275604;19;19986;-67
2022/08/21 20:57:55;;;;;;;0.00;0.00;;;;;;;;;;12279343;19;20086;-62
2022/08/21 21:01:58;;;;;;;0.00;0.00;;;;;;;;;;12285817;19;20003;-69
2022/08/21 21:06:00;;;;;;;0.00;0.00;;;;;;;;;;12275922;19;20305;-68
2022/08/21 21:10:00;;;;;;;;;;;;;;;;;;12286713;19;20002;-67
2022/08/21 21:14:03;;;;;;;0.00;0.00;;;;;;;;;;12277711;19;19915;-64
2022/08/21 21:18:07;;;;;;;0.00;0.00;;;;;;;;;;12278707;19;19998;-64
2022/08/21 21:22:08;;;;;;;0.00;0.00;;;;;;;;;;12277469;19;19994;-69
2022/08/21 21:26:12;;;;;;;0.00;0.00;;;;;;;;;;12280773;19;19999;-65
2022/08/21 21:30:15;;;;;;;0.00;0.00;;;;;;;;;;12274695;19;20003;-67
2022/08/21 21:34:16;;;;;;;0.00;0.00;;;;;;;;;;12281977;19;20019;-67
2022/08/21 21:38:24;;;;;;;0.00;0.00;;;;;;;;;;12280274;19;20010;-68
2022/08/21 21:42:45;;;;;;;0.00;0.00;;;;;;;;;;12276642;19;20503;-68
2022/08/21 21:46:59;;;;;;;0.00;0.00;;;;;;;;;;12272735;19;20062;-65
2022/08/21 21:51:26;;;;;;;0.00;0.00;;;;;;;;;;12286783;19;20143;-64
2022/08/21 21:55:32;;;;;;;0.00;0.00;;;;;;;;;;12270545;19;19987;-64
2022/08/21 21:59:58;;;;;;;0.00;0.00;;;;;;;;;;12277351;19;20003;-67
2022/08/21 22:04:03;;;;;;;0.00;0.00;;;;;;;;;;12276551;19;20261;-66
2022/08/21 22:08:11;;;;;;;0.00;0.00;;;;;;;;;;12272076;19;20150;-64
2022/08/21 22:12:17;;;;;;;0.00;0.00;;;;;;;;;;12276107;19;20002;-68
2022/08/21 22:16:18;;;;;;;0.00;0.00;;;;;;;;;;12269804;19;19993;-68
2022/08/21 22:20:39;;;;;;;0.00;0.00;;;;;;;;;;12272623;19;20009;-67
2022/08/21 22:24:43;;;;;;;0.00;0.00;;;;;;;;;;12272765;19;20127;-69
2022/08/21 22:28:45;;;;;;;0.00;0.00;;;;;;;;;;12270631;19;20002;-68
2022/08/21 22:32:47;;;;;;;;;;;;;;;;;;12269266;19;20098;-67
2022/08/21 22:36:58;;;;;;;0.00;0.00;;;;;;;;;;12276639;19;19907;-63
2022/08/21 22:41:15;;;;;;;0.00;0.00;;;;;;;;;;12276189;19;20018;-68
2022/08/21 22:45:19;;;;;;;0.00;0.00;;;;;;;;;;12273790;19;20034;-67
2022/08/21 22:49:35;;;;;;;0.00;0.00;;;;;;;;;;12268368;19;20011;-67
2022/08/21 22:53:37;;;;;;;0.00;0.00;;;;;;;;;;12274920;19;20006;-67
2022/08/21 22:57:38;;;;;;;;;;;;;;;;;;12274129;19;20022;-62
2022/08/21 23:01:42;;;;;;;0.00;0.00;;;;;;;;;;12276201;19;19918;-66
2022/08/21 23:05:43;;;;;;;0.00;0.00;;;;;;;;;;12272506;19;20193;-66
2022/08/21 23:09:47;;;;;;;0.00;0.00;;;;;;;;;;12272953;19;19983;-67
2022/08/21 23:13:48;;;;;;;0.00;0.00;;;;;;;;;;12271958;19;19979;-67
2022/08/21 23:18:07;;;;;;;0.00;0.00;;;;;;;;;;12272327;19;19987;-67
2022/08/21 23:22:07;;;;;;;0.00;0.00;;;;;;;;;;12286324;19;20007;-67
2022/08/21 23:26:16;;;;;;;0.00;0.00;;;;;;;;;;12281573;19;20025;-67
2022/08/21 23:30:18;;;;;;;0.00;0.00;;;;;;;;;;12282633;19;20042;-68
2022/08/21 23:34:24;;;;;;;0.00;0.00;;;;;;;;;;12284904;19;19986;-67
2022/08/21 23:38:24;;;;;;;0.00;0.00;;;;;;;;;;12284668;19;20002;-68
2022/08/21 23:42:25;;;;;;;0.00;0.00;;;;;;;;;;12282021;19;20038;-68
2022/08/21 23:46:40;;;;;;;0.00;0.00;;;;;;;;;;12280652;19;19990;-67
2022/08/21 23:51:04;;;;;;;0.00;0.00;;;;;;;;;;12284953;19;20259;-67
2022/08/21 23:55:24;;;;;;;0.00;0.00;;;;;;;;;;12281732;19;20002;-66
2022/08/21 23:59:43;;;;;;;0.00;0.00;;;;;;;;;;12286247;19;19987;-69
